Etusivu
METAR-TAF:

METAR-TAF

Lentoasemat :

Storm Lake Municipal Airport

Storm Lake, Iowa, Yhdysvallat

Leveyspiiri: 42-36N, Pituuspiiri: 095-14W, korkeus merenpinnasta: 454 m

Tämänhetkinen sää

Tämä raportti tehtiin 21 minuuttia sitten, kello 07.55 UTC
Tuuli 5 kn pohjoisesta
Lämpötila 17°C
Kosteus 94%
Ilmanpaine 1017 hPa
Näkyvyys: 16.1 km
selkeää

METAR: KSLB 150755Z AUTO 36005KT 10SM CLR 17/16 A3003 RMK AO2

Aika: 03:16 (08:16 UTC)


TAF: puuttuu

Säähavainnot ja -ennusteet yli 4000 lentoasemalta (METAR- ja TAF-raportit).

Käytössä olevat sääasemat on merkitty karttaan keltaisilla ja punaisilla pisteillä.

Aseta hiiri pisteen päälle nähdäksesi sääaseman nimen.

Klikkaa sitten nähdäksesi säähavainnot ja -ennusteet.

Kartan vaihtaminen: klikkaa mustalla rastilla varustettuja vihreitä pisteitä, niin voit zoomata sisään; viivalla varustettua vihreää pistettä, niin voit zoomata ulos tai vihreitä nuolia, niin pääset viereisille kartoille.


METAR-TAF: